createdAt,value
2018-07-16T00:00:28.747Z,26.7
2018-07-16T00:01:34.239Z,26.7
2018-07-16T00:02:39.389Z,26.7
2018-07-16T00:03:44.615Z,26.7
2018-07-16T00:04:49.539Z,26.7
2018-07-16T00:05:55.068Z,26.7
2018-07-16T00:07:00.856Z,26.7
2018-07-16T00:08:05.178Z,26.7
2018-07-16T00:09:10.428Z,26.7
2018-07-16T00:10:15.979Z,26.7
2018-07-16T00:11:21.138Z,26.7
2018-07-16T00:12:26.345Z,26.7
2018-07-16T00:13:31.959Z,26.7
2018-07-16T00:14:36.915Z,26.7
2018-07-16T00:15:43.107Z,26.7
2018-07-16T00:16:48.029Z,26.6
2018-07-16T00:17:53.204Z,26.6
2018-07-16T00:18:58.739Z,26.6
2018-07-16T00:20:04.217Z,26.6
2018-07-16T00:21:09.106Z,26.6
2018-07-16T00:22:14.287Z,26.6
2018-07-16T00:23:19.469Z,26.6
2018-07-16T00:24:25.459Z,26.6
2018-07-16T00:25:30.347Z,26.6
2018-07-16T00:26:35.846Z,26.6
2018-07-16T00:27:40.855Z,26.6
2018-07-16T00:28:45.441Z,26.6
2018-07-16T00:29:50.616Z,26.6
2018-07-16T00:30:56.506Z,26.6
2018-07-16T00:32:01.672Z,26.6
2018-07-16T00:33:05.731Z,26.6
2018-07-16T00:34:11.138Z,26.6
2018-07-16T00:35:16.604Z,26.6
2018-07-16T00:36:21.800Z,26.6
2018-07-16T00:37:27.084Z,26.6
2018-07-16T00:38:32.544Z,26.6
2018-07-16T00:39:37.520Z,26.6
2018-07-16T00:40:42.979Z,26.6
2018-07-16T00:41:48.155Z,26.6
2018-07-16T00:42:53.918Z,26.5
2018-07-16T00:43:58.791Z,26.5
2018-07-16T00:45:03.959Z,26.5
2018-07-16T00:46:09.224Z,26.6
2018-07-16T00:47:14.108Z,26.6
2018-07-16T00:48:19.547Z,26.6
2018-07-16T00:49:24.947Z,26.6
2018-07-16T00:50:29.255Z,26.6
2018-07-16T00:51:34.512Z,26.6
2018-07-16T00:52:39.960Z,26.6
2018-07-16T00:53:45.116Z,26.6
2018-07-16T00:54:50.918Z,26.6
2018-07-16T00:55:55.842Z,26.6
2018-07-16T00:57:00.984Z,26.5
2018-07-16T00:58:05.915Z,26.6
2018-07-16T00:59:11.095Z,26.5
2018-07-16T01:00:16.295Z,26.5
2018-07-16T01:01:21.142Z,26.6
2018-07-16T01:02:26.301Z,26.5
2018-07-16T01:03:31.884Z,26.5
2018-07-16T01:04:37.450Z,26.5
2018-07-16T01:05:42.916Z,26.5
2018-07-16T01:06:48.612Z,26.5
2018-07-16T01:07:53.780Z,26.5
2018-07-16T01:08:58.674Z,26.5
2018-07-16T01:10:04.270Z,26.5
2018-07-16T01:11:09.212Z,26.5
2018-07-16T01:12:14.659Z,26.5
2018-07-16T01:13:20.438Z,26.5
2018-07-16T01:14:25.594Z,26.5
2018-07-16T01:15:29.984Z,26.5
2018-07-16T01:16:35.585Z,26.5
2018-07-16T01:17:40.853Z,26.5
2018-07-16T01:18:45.988Z,26.5
2018-07-16T01:19:51.568Z,26.5
2018-07-16T01:20:56.833Z,26.5
2018-07-16T01:22:02.344Z,26.5
2018-07-16T01:23:07.302Z,26.5
2018-07-16T01:24:12.534Z,26.5
2018-07-16T01:25:17.973Z,26.5
2018-07-16T01:26:23.202Z,26.5
2018-07-16T01:27:28.482Z,26.5
2018-07-16T01:28:33.626Z,26.5
2018-07-16T01:29:38.895Z,26.5
2018-07-16T01:30:44.727Z,26.5
2018-07-16T01:31:50.230Z,26.5
2018-07-16T01:32:55.500Z,26.5
2018-07-16T01:34:00.567Z,26.5
2018-07-16T01:35:05.203Z,26.5
2018-07-16T01:36:09.814Z,26.5
2018-07-16T01:37:15.229Z,26.5
2018-07-16T01:38:20.397Z,26.5
2018-07-16T01:39:26.000Z,26.5
2018-07-16T01:40:31.168Z,26.5
2018-07-16T01:41:36.608Z,26.5
2018-07-16T01:42:42.337Z,26.5
2018-07-16T01:43:47.562Z,26.5
2018-07-16T01:44:52.155Z,26.4
2018-07-16T01:45:57.594Z,26.5
2018-07-16T01:47:02.878Z,26.4
2018-07-16T01:48:08.075Z,26.4
2018-07-16T01:49:13.982Z,26.5
2018-07-16T01:50:18.934Z,26.5
2018-07-16T01:51:24.083Z,26.4
2018-07-16T01:52:29.493Z,26.4
2018-07-16T01:53:35.032Z,26.4
2018-07-16T01:54:39.590Z,26.5
2018-07-16T01:55:44.576Z,26.4
2018-07-16T01:56:49.772Z,26.4
2018-07-16T01:57:54.995Z,26.4
2018-07-16T02:00:20.763Z,26.4
2018-07-16T02:01:26.482Z,26.4
2018-07-16T02:02:31.748Z,26.4
2018-07-16T02:03:37.224Z,26.4
2018-07-16T02:04:42.665Z,26.4
2018-07-16T02:05:47.261Z,26.4
2018-07-16T02:06:52.985Z,26.4
2018-07-16T02:07:58.442Z,26.4
2018-07-16T02:09:03.622Z,26.4
2018-07-16T02:10:08.495Z,26.4
2018-07-16T02:11:13.684Z,26.4
2018-07-16T02:12:19.168Z,26.4
2018-07-16T02:13:24.778Z,26.4
2018-07-16T02:14:30.283Z,26.4
2018-07-16T02:15:35.773Z,26.4
2018-07-16T02:16:40.980Z,26.4
2018-07-16T02:17:46.185Z,26.4
2018-07-16T02:18:51.051Z,26.4
2018-07-16T02:19:56.484Z,26.4
2018-07-16T02:21:01.716Z,26.4
2018-07-16T02:22:06.625Z,26.4
2018-07-16T02:23:11.499Z,26.4
2018-07-16T02:24:16.686Z,26.4
2018-07-16T02:25:22.375Z,26.4
2018-07-16T02:26:26.981Z,26.4
2018-07-16T02:27:32.570Z,26.4
2018-07-16T02:28:38.019Z,26.3
2018-07-16T02:29:43.545Z,26.4
2018-07-16T02:30:48.993Z,26.3
2018-07-16T02:31:54.245Z,26.4
2018-07-16T02:32:59.699Z,26.4
2018-07-16T02:34:05.183Z,26.4
2018-07-16T02:35:10.128Z,26.4
2018-07-16T02:36:14.705Z,26.4
2018-07-16T02:37:20.423Z,26.4
2018-07-16T02:38:25.929Z,26.4
2018-07-16T02:39:31.626Z,26.4
2018-07-16T02:40:36.791Z,26.4
2018-07-16T02:41:42.307Z,26.4
2018-07-16T02:42:47.856Z,26.4
2018-07-16T02:43:53.005Z,26.3
2018-07-16T02:44:58.171Z,26.3
2018-07-16T02:46:03.452Z,26.3
2018-07-16T02:47:08.411Z,26.3
2018-07-16T02:48:13.867Z,26.3
2018-07-16T02:49:19.425Z,26.4
2018-07-16T02:50:24.861Z,26.4
2018-07-16T02:51:30.486Z,26.3
2018-07-16T02:52:35.636Z,26.3
2018-07-16T02:53:40.957Z,26.3
2018-07-16T02:54:46.822Z,26.3
2018-07-16T02:55:52.293Z,26.3
2018-07-16T02:56:57.517Z,26.3
2018-07-16T02:58:02.988Z,26.3
2018-07-16T02:59:08.191Z,26.3
2018-07-16T03:00:13.670Z,26.3
2018-07-16T03:01:19.239Z,26.3
2018-07-16T03:02:24.455Z,26.3
2018-07-16T03:03:29.597Z,26.3
2018-07-16T03:04:34.762Z,26.3
2018-07-16T03:05:40.239Z,26.3
2018-07-16T03:06:45.737Z,26.3
2018-07-16T03:07:50.896Z,26.3
2018-07-16T03:08:56.351Z,26.3
2018-07-16T03:10:01.954Z,26.3
2018-07-16T03:11:06.849Z,26.3
2018-07-16T03:12:12.358Z,26.3
2018-07-16T03:13:17.525Z,26.3
2018-07-16T03:14:22.975Z,26.3
2018-07-16T03:15:28.033Z,26.3
2018-07-16T03:16:33.187Z,26.3
2018-07-16T03:17:38.627Z,26.3
2018-07-16T03:18:44.237Z,26.3
2018-07-16T03:19:49.399Z,26.3
2018-07-16T03:20:54.565Z,26.3
2018-07-16T03:22:00.337Z,26.3
2018-07-16T03:23:05.222Z,26.3
2018-07-16T03:24:10.115Z,26.3
2018-07-16T03:25:15.582Z,26.3
2018-07-16T03:26:21.099Z,26.3
2018-07-16T03:27:26.699Z,26.3
2018-07-16T03:28:31.679Z,26.3
2018-07-16T03:29:36.834Z,26.3
2018-07-16T03:30:42.528Z,26.3
2018-07-16T03:31:47.169Z,26.3
2018-07-16T03:32:52.049Z,26.3
2018-07-16T03:33:57.329Z,26.3
2018-07-16T03:35:02.575Z,26.2
2018-07-16T03:36:07.453Z,26.3
2018-07-16T03:37:12.481Z,26.2
2018-07-16T03:38:18.027Z,26.2
2018-07-16T03:39:22.905Z,26.2
2018-07-16T03:40:28.745Z,26.2
2018-07-16T03:41:34.242Z,26.2
2018-07-16T03:42:40.069Z,26.2
2018-07-16T03:43:45.517Z,26.2
2018-07-16T03:44:50.682Z,26.2
2018-07-16T03:45:56.537Z,26.2
2018-07-16T03:47:01.139Z,26.2
2018-07-16T03:48:05.781Z,26.2
2018-07-16T03:49:12.283Z,26.2
2018-07-16T03:50:17.722Z,26.2
2018-07-16T03:51:23.257Z,26.2
2018-07-16T03:52:29.293Z,26.2
2018-07-16T03:53:34.570Z,26.2
2018-07-16T03:54:39.983Z,26.2
2018-07-16T03:55:45.525Z,26.2
2018-07-16T03:56:51.119Z,26.2
2018-07-16T03:57:56.819Z,26.2
2018-07-16T03:59:01.698Z,26.2
2018-07-16T04:00:07.190Z,26.2
2018-07-16T04:01:12.766Z,26.2
2018-07-16T04:02:17.926Z,26.2
2018-07-16T04:03:23.077Z,26.2
2018-07-16T04:04:42.665Z,26.1
2018-07-16T04:05:47.843Z,26.1
2018-07-16T04:06:53.637Z,26.1
2018-07-16T04:07:58.795Z,26.1
2018-07-16T04:09:03.682Z,26
2018-07-16T04:10:09.126Z,26
2018-07-16T04:11:13.700Z,26
2018-07-16T04:12:18.930Z,26
2018-07-16T04:13:24.724Z,26
2018-07-16T04:14:29.885Z,25.9
2018-07-16T04:15:35.313Z,25.9
2018-07-16T04:16:40.603Z,25.9
2018-07-16T04:17:45.482Z,25.9
2018-07-16T04:18:53.513Z,25.8
2018-07-16T04:19:58.664Z,25.8
2018-07-16T04:21:03.889Z,25.8
2018-07-16T04:22:09.056Z,25.8
2018-07-16T04:23:14.206Z,25.7
2018-07-16T04:24:21.286Z,25.7
2018-07-16T04:25:27.151Z,25.7
2018-07-16T04:26:32.598Z,25.7
2018-07-16T04:27:38.395Z,25.6
2018-07-16T04:28:43.396Z,25.6
2018-07-16T04:29:48.824Z,25.6
2018-07-16T04:30:54.295Z,25.5
2018-07-16T04:31:59.809Z,25.5
2018-07-16T04:33:04.694Z,25.5
2018-07-16T04:34:09.466Z,25.5
2018-07-16T04:35:15.007Z,25.5
2018-07-16T04:36:19.882Z,25.4
2018-07-16T04:37:26.183Z,25.4
2018-07-16T04:38:31.456Z,25.4
2018-07-16T04:39:36.726Z,25.4
2018-07-16T04:40:42.187Z,25.4
2018-07-16T04:41:47.665Z,25.4
2018-07-16T04:42:53.095Z,25.3
2018-07-16T04:43:57.982Z,25.3
2018-07-16T04:45:03.516Z,25.3
2018-07-16T04:46:08.926Z,25.3
2018-07-16T04:47:14.084Z,25.3
2018-07-16T04:48:19.231Z,25.2
2018-07-16T04:49:24.686Z,25.2
2018-07-16T04:50:29.362Z,25.2
2018-07-16T04:51:34.981Z,25.2
2018-07-16T04:52:40.155Z,25.2
2018-07-16T04:53:45.598Z,25.2
2018-07-16T04:54:51.300Z,25.1
2018-07-16T04:55:56.743Z,25.1
2018-07-16T04:57:01.759Z,25.1
2018-07-16T04:58:06.951Z,25.1
2018-07-16T04:59:12.403Z,25.1
2018-07-16T05:00:17.282Z,25.1
2018-07-16T05:01:22.557Z,25
2018-07-16T05:02:27.791Z,25
2018-07-16T05:03:33.640Z,25
2018-07-16T05:04:38.863Z,25
2018-07-16T05:05:44.308Z,25
2018-07-16T05:06:49.705Z,25
2018-07-16T05:07:55.164Z,25
2018-07-16T05:09:00.357Z,24.9
2018-07-16T05:10:05.903Z,24.9
2018-07-16T05:11:11.408Z,24.9
2018-07-16T05:12:16.364Z,24.9
2018-07-16T05:13:22.066Z,24.9
2018-07-16T05:14:26.980Z,24.9
2018-07-16T05:15:32.604Z,24.9
2018-07-16T05:16:38.114Z,24.9
2018-07-16T05:17:43.564Z,24.9
2018-07-16T05:18:48.440Z,24.8
2018-07-16T05:19:54.089Z,24.8
2018-07-16T05:20:59.331Z,24.8
2018-07-16T05:22:04.750Z,24.8
2018-07-16T05:23:09.994Z,24.8
2018-07-16T05:24:15.435Z,24.8
2018-07-16T05:25:21.199Z,24.8
2018-07-16T05:26:26.159Z,24.8
2018-07-16T05:27:32.566Z,24.7
2018-07-16T05:28:38.031Z,24.7
2018-07-16T05:29:43.285Z,24.7
2018-07-16T05:32:08.906Z,24.7
2018-07-16T05:33:14.569Z,24.7
2018-07-16T05:34:20.175Z,24.7
2018-07-16T05:35:25.441Z,24.7
2018-07-16T05:36:30.724Z,24.6
2018-07-16T05:37:35.930Z,24.6
2018-07-16T05:38:41.109Z,24.6
2018-07-16T05:39:46.841Z,24.6
2018-07-16T05:40:51.728Z,24.6
2018-07-16T05:41:57.181Z,24.6
2018-07-16T05:43:02.576Z,24.6
2018-07-16T05:44:07.916Z,24.6
2018-07-16T05:45:13.130Z,24.6
2018-07-16T05:46:18.312Z,24.6
2018-07-16T05:47:23.897Z,24.6
2018-07-16T05:48:29.084Z,24.5
2018-07-16T05:49:34.517Z,24.6
2018-07-16T05:50:39.822Z,24.5
2018-07-16T05:51:45.409Z,24.5
2018-07-16T05:52:50.864Z,24.5
2018-07-16T05:53:56.151Z,24.5
2018-07-16T05:55:02.051Z,24.5
2018-07-16T05:56:07.237Z,24.5
2018-07-16T05:57:12.418Z,24.5
2018-07-16T05:58:18.160Z,24.5
2018-07-16T05:59:23.546Z,24.5
2018-07-16T06:00:28.622Z,24.5
2018-07-16T06:01:33.808Z,24.5
2018-07-16T06:02:39.275Z,24.4
2018-07-16T06:03:45.148Z,24.4
2018-07-16T06:04:50.071Z,24.4
2018-07-16T06:05:54.926Z,24.4
2018-07-16T06:07:00.186Z,24.4
2018-07-16T06:08:08.695Z,24.4
2018-07-16T06:09:14.157Z,24.4
2018-07-16T06:10:19.819Z,24.4
2018-07-16T06:11:24.969Z,24.4
2018-07-16T06:12:30.530Z,24.4
2018-07-16T06:13:35.976Z,24.4
2018-07-16T06:14:41.421Z,24.4
2018-07-16T06:15:47.260Z,24.3
2018-07-16T06:16:52.749Z,24.3
2018-07-16T06:17:58.134Z,24.3
2018-07-16T06:19:03.860Z,24.3
2018-07-16T06:20:08.734Z,24.3
2018-07-16T06:21:13.701Z,24.3
2018-07-16T06:22:19.488Z,24.3
2018-07-16T06:23:24.936Z,24.3
2018-07-16T06:24:30.346Z,24.3
2018-07-16T06:25:35.242Z,24.3
2018-07-16T06:26:40.720Z,24.3
2018-07-16T06:27:45.863Z,24.2
2018-07-16T06:28:51.056Z,24.2
2018-07-16T06:29:56.494Z,24.2
2018-07-16T06:31:02.140Z,24.2
2018-07-16T06:32:06.729Z,24.2
2018-07-16T06:33:12.178Z,24.2
2018-07-16T06:34:17.929Z,24.2
2018-07-16T06:35:23.136Z,24.2
2018-07-16T06:36:28.956Z,24.2
2018-07-16T06:37:34.156Z,24.2
2018-07-16T06:38:39.410Z,24.2
2018-07-16T06:39:45.182Z,24.2
2018-07-16T06:40:51.061Z,24.2
2018-07-16T06:41:58.766Z,24.1
2018-07-16T06:43:04.561Z,24.1
2018-07-16T06:44:09.811Z,24.1
2018-07-16T06:45:15.277Z,24.1
2018-07-16T06:46:20.911Z,24.1
2018-07-16T06:47:26.417Z,24.1
2018-07-16T06:48:31.726Z,24.1
2018-07-16T06:49:36.870Z,24.1
2018-07-16T06:50:41.897Z,24.1
2018-07-16T06:51:47.461Z,24.1
2018-07-16T06:52:52.988Z,24.1
2018-07-16T06:53:58.113Z,24.1
2018-07-16T06:55:03.849Z,24.1
2018-07-16T06:56:09.647Z,24.1
2018-07-16T06:57:16.305Z,24.1
2018-07-16T06:58:21.450Z,24.1
2018-07-16T06:59:26.924Z,24
2018-07-16T07:00:32.609Z,24
2018-07-16T07:01:37.866Z,24
2018-07-16T07:02:42.782Z,24
2018-07-16T07:03:48.249Z,24
2018-07-16T07:04:53.444Z,24
2018-07-16T07:05:58.909Z,24
2018-07-16T07:07:04.043Z,24
2018-07-16T07:08:08.973Z,24
2018-07-16T07:09:13.845Z,24
2018-07-16T07:10:19.417Z,24
2018-07-16T07:11:24.599Z,24
2018-07-16T07:12:30.109Z,24
2018-07-16T07:13:35.522Z,24
2018-07-16T07:14:40.828Z,24
2018-07-16T07:15:45.205Z,24
2018-07-16T07:16:51.035Z,24
2018-07-16T07:17:55.980Z,24
2018-07-16T07:19:01.455Z,24
2018-07-16T07:20:06.323Z,24
2018-07-16T07:21:11.486Z,24
2018-07-16T07:22:17.045Z,24
2018-07-16T07:23:22.692Z,24
2018-07-16T07:24:28.555Z,24
2018-07-16T07:25:34.091Z,24
2018-07-16T07:26:40.656Z,24
2018-07-16T07:27:46.091Z,24
2018-07-16T07:28:51.491Z,24
2018-07-16T07:29:56.686Z,24
2018-07-16T07:31:02.583Z,24
2018-07-16T07:32:07.718Z,24
2018-07-16T07:33:12.916Z,24
2018-07-16T07:34:18.760Z,24
2018-07-16T07:35:24.241Z,24
2018-07-16T07:36:29.867Z,24
2018-07-16T07:37:35.029Z,24
2018-07-16T07:38:40.507Z,24
2018-07-16T07:39:45.680Z,24
2018-07-16T07:40:50.873Z,24
2018-07-16T07:41:56.405Z,24
2018-07-16T07:43:02.106Z,24
2018-07-16T07:44:07.276Z,24
2018-07-16T07:45:12.495Z,24
2018-07-16T07:46:17.951Z,24
2018-07-16T07:47:23.114Z,24
2018-07-16T07:48:28.276Z,24
2018-07-16T07:49:33.722Z,24
2018-07-16T07:50:38.729Z,24
2018-07-16T07:51:43.987Z,24
2018-07-16T07:52:49.419Z,24
2018-07-16T07:53:54.929Z,24
2018-07-16T07:55:00.841Z,24
2018-07-16T07:56:08.546Z,24
2018-07-16T07:57:13.432Z,23.9
2018-07-16T07:58:18.880Z,23.9
2018-07-16T07:59:24.110Z,23.9
2018-07-16T08:00:29.652Z,23.9
2018-07-16T08:01:35.178Z,23.9
2018-07-16T08:02:39.893Z,23.9
2018-07-16T08:03:45.620Z,23.9
2018-07-16T08:04:51.145Z,23.9
2018-07-16T08:05:56.619Z,23.9
2018-07-16T08:07:02.134Z,23.9
2018-07-16T08:08:07.044Z,23.9
2018-07-16T08:09:11.725Z,23.9
2018-07-16T08:10:17.237Z,23.9
2018-07-16T08:11:22.392Z,23.9
2018-07-16T08:12:28.084Z,23.9
2018-07-16T08:13:33.242Z,23.8
2018-07-16T08:14:38.725Z,23.8
2018-07-16T08:15:43.755Z,23.9
2018-07-16T08:16:48.923Z,23.9
2018-07-16T08:17:54.120Z,23.8
2018-07-16T08:18:59.206Z,23.8
2018-07-16T08:20:04.661Z,23.8
2018-07-16T08:21:10.143Z,23.8
2018-07-16T08:22:15.908Z,23.8
2018-07-16T08:23:20.513Z,23.8
2018-07-16T08:24:26.409Z,23.8
2018-07-16T08:25:31.855Z,23.8
2018-07-16T08:26:37.440Z,23.8
2018-07-16T08:27:42.774Z,23.8
2018-07-16T08:28:49.344Z,23.8
2018-07-16T08:29:57.915Z,23.8
2018-07-16T08:31:05.148Z,23.8
2018-07-16T08:32:12.882Z,23.8
2018-07-16T08:33:19.325Z,23.8
2018-07-16T08:34:25.344Z,23.8
2018-07-16T08:35:31.074Z,23.8
2018-07-16T08:36:36.465Z,23.8
2018-07-16T08:37:41.902Z,23.8
2018-07-16T08:38:46.898Z,23.8
2018-07-16T08:39:52.263Z,23.8
2018-07-16T08:40:57.164Z,23.8
2018-07-16T08:42:02.115Z,23.8
2018-07-16T08:43:07.257Z,23.8
2018-07-16T08:44:12.758Z,23.8
2018-07-16T08:45:18.244Z,23.8
2018-07-16T08:46:23.836Z,23.8
2018-07-16T08:47:29.068Z,23.9
2018-07-16T08:48:34.512Z,23.8
2018-07-16T08:49:40.007Z,23.8
2018-07-16T08:50:44.912Z,23.9
2018-07-16T08:51:50.597Z,23.9
2018-07-16T08:52:55.565Z,23.9
2018-07-16T08:54:00.713Z,23.9
2018-07-16T08:55:06.285Z,23.9
2018-07-16T08:56:11.517Z,23.9
2018-07-16T08:57:16.133Z,24
2018-07-16T08:58:21.726Z,24
2018-07-16T08:59:27.203Z,24
2018-07-16T09:00:32.612Z,24
2018-07-16T09:01:37.831Z,24
2018-07-16T09:02:42.706Z,24
2018-07-16T09:03:47.976Z,24
2018-07-16T09:04:53.475Z,24
2018-07-16T09:05:59.027Z,24
2018-07-16T09:07:04.725Z,24
2018-07-16T09:08:10.558Z,24
2018-07-16T09:09:16.101Z,24
2018-07-16T09:10:21.793Z,24.1
2018-07-16T09:11:26.731Z,24.1
2018-07-16T09:12:32.536Z,24.1
2018-07-16T09:13:37.758Z,24.1
2018-07-16T09:14:43.970Z,24.1
2018-07-16T09:15:48.905Z,24.1
2018-07-16T09:16:54.466Z,24.1
2018-07-16T09:18:00.311Z,24.1
2018-07-16T09:19:05.580Z,24.1
2018-07-16T09:20:11.217Z,24.1
2018-07-16T09:21:16.659Z,24.1
2018-07-16T09:22:22.218Z,24.1
2018-07-16T09:23:27.706Z,24.1
2018-07-16T09:24:33.469Z,24.1
2018-07-16T09:25:38.691Z,24.1
2018-07-16T09:26:43.925Z,24.1
2018-07-16T09:27:49.455Z,24.1
2018-07-16T09:28:54.699Z,24.1
2018-07-16T09:30:00.203Z,24.2
2018-07-16T09:31:05.495Z,24.1
2018-07-16T09:32:10.394Z,24.2
2018-07-16T09:33:15.674Z,24.2
2018-07-16T09:34:21.528Z,24.2
2018-07-16T09:35:26.108Z,24.2
2018-07-16T09:36:31.896Z,24.2
2018-07-16T09:37:37.405Z,24.2
2018-07-16T09:38:42.716Z,24.2
2018-07-16T09:39:47.944Z,24.2
2018-07-16T09:40:53.138Z,24.2
2018-07-16T09:41:58.619Z,24.2
2018-07-16T09:43:04.027Z,24.2
2018-07-16T09:44:09.260Z,24.2
2018-07-16T09:45:13.870Z,24.2
2018-07-16T09:46:19.116Z,24.3
2018-07-16T09:47:24.884Z,24.2
2018-07-16T09:48:30.977Z,24.3
2018-07-16T09:49:35.932Z,24.3
2018-07-16T09:50:41.323Z,24.3
2018-07-16T09:51:46.760Z,24.3
2018-07-16T09:52:52.480Z,24.3
2018-07-16T09:53:57.455Z,24.3
2018-07-16T09:55:03.294Z,24.3
2018-07-16T09:56:08.777Z,24.3
2018-07-16T09:57:14.103Z,24.3
2018-07-16T09:58:19.808Z,24.3
2018-07-16T09:59:24.693Z,24.3
2018-07-16T10:00:29.739Z,24.3
2018-07-16T10:01:34.898Z,24.3
2018-07-16T10:02:40.333Z,24.3
2018-07-16T10:03:45.178Z,24.3
2018-07-16T10:04:50.453Z,24.3
2018-07-16T10:05:55.357Z,24.3
2018-07-16T10:07:00.889Z,24.3
2018-07-16T10:08:05.774Z,24.3
2018-07-16T10:09:10.683Z,24.3
2018-07-16T10:10:16.212Z,24.3
2018-07-16T10:11:21.650Z,24.3
2018-07-16T10:12:27.248Z,24.3
2018-07-16T10:13:32.435Z,24.3
2018-07-16T10:14:37.635Z,24.3
2018-07-16T10:15:43.105Z,24.3
2018-07-16T10:16:48.590Z,24.3
2018-07-16T10:17:54.047Z,24.3
2018-07-16T10:18:59.223Z,24.3
2018-07-16T10:20:04.409Z,24.3
2018-07-16T10:21:09.101Z,24.3
2018-07-16T10:22:14.067Z,24.3
2018-07-16T10:23:19.571Z,24.3
2018-07-16T10:25:44.725Z,24.3
2018-07-16T10:26:50.310Z,24.3
2018-07-16T10:27:55.856Z,24.3
2018-07-16T10:29:01.313Z,24.3
2018-07-16T10:30:06.190Z,24.3
2018-07-16T10:31:12.033Z,24.3
2018-07-16T10:32:16.967Z,24.3
2018-07-16T10:33:22.136Z,24.3
2018-07-16T10:34:28.569Z,24.3
2018-07-16T10:35:33.756Z,24.3
2018-07-16T10:36:39.447Z,24.3
2018-07-16T10:37:44.624Z,24.3
2018-07-16T10:38:49.798Z,24.3
2018-07-16T10:39:54.645Z,24.2
2018-07-16T10:40:59.299Z,24.2
2018-07-16T10:42:03.919Z,24.2
2018-07-16T10:43:09.394Z,24.2
2018-07-16T10:44:14.881Z,24.2
2018-07-16T10:45:20.454Z,24.2
2018-07-16T10:46:40.674Z,24.2
2018-07-16T10:47:46.174Z,24.2
2018-07-16T10:48:51.915Z,24.2
2018-07-16T10:49:56.855Z,24.2
2018-07-16T10:51:01.738Z,24.2
2018-07-16T10:52:08.073Z,24.2
2018-07-16T10:53:13.264Z,24.2
2018-07-16T10:54:18.773Z,24.2
2018-07-16T10:55:24.258Z,24.2
2018-07-16T10:56:29.614Z,24.2
2018-07-16T10:57:35.007Z,24.2
2018-07-16T10:58:40.252Z,24.2
2018-07-16T10:59:45.683Z,24.2
2018-07-16T11:00:50.613Z,24.2
2018-07-16T11:01:56.173Z,24.2
2018-07-16T11:03:01.710Z,24.2
2018-07-16T11:04:07.675Z,24.2
2018-07-16T11:05:12.562Z,24.2
2018-07-16T11:06:18.458Z,24.2
2018-07-16T11:07:23.313Z,24.2
2018-07-16T11:08:28.220Z,24.2
2018-07-16T11:09:33.959Z,24.2
2018-07-16T11:10:39.749Z,24.1
2018-07-16T11:11:44.943Z,24.1
2018-07-16T11:12:50.804Z,24.1
2018-07-16T11:13:55.961Z,24.2
2018-07-16T11:15:01.164Z,24.2
2018-07-16T11:16:07.173Z,24.2
2018-07-16T11:17:12.089Z,24.2
2018-07-16T11:18:17.752Z,24.2
2018-07-16T11:19:23.615Z,24.2
2018-07-16T11:20:28.490Z,24.2
2018-07-16T11:21:33.948Z,24.2
2018-07-16T11:22:39.405Z,24.3
2018-07-16T11:23:44.849Z,24.2
2018-07-16T11:24:50.376Z,24.3
2018-07-16T11:25:56.187Z,24.3
2018-07-16T11:27:01.075Z,24.2
2018-07-16T11:28:06.031Z,24.2
2018-07-16T11:29:10.614Z,24.2
2018-07-16T11:30:16.057Z,24.2
2018-07-16T11:31:21.362Z,24.2
2018-07-16T11:32:26.254Z,24.2
2018-07-16T11:33:31.583Z,24.2
2018-07-16T11:34:36.464Z,24.2
2018-07-16T11:35:41.644Z,24.2
2018-07-16T11:36:47.101Z,24.2
2018-07-16T11:37:52.271Z,24.2
2018-07-16T11:38:57.732Z,24.2
2018-07-16T11:40:03.527Z,24.2
2018-07-16T11:41:08.408Z,24.2
2018-07-16T11:42:13.866Z,24.2
2018-07-16T11:43:19.271Z,24.2
2018-07-16T11:44:24.717Z,24.2
2018-07-16T11:45:30.163Z,24.2
2018-07-16T11:46:35.330Z,24.2
2018-07-16T11:47:40.488Z,24.2
2018-07-16T11:48:45.982Z,24.2
2018-07-16T11:49:51.472Z,24.2
2018-07-16T11:50:56.641Z,24.2
2018-07-16T11:52:01.258Z,24.2
2018-07-16T11:53:07.031Z,24.2
2018-07-16T11:54:12.215Z,24.2
2018-07-16T11:55:18.073Z,24.2
2018-07-16T11:56:23.523Z,24.2
2018-07-16T11:57:28.946Z,24.2
2018-07-16T11:58:34.119Z,24.2
2018-07-16T11:59:39.327Z,24.2
2018-07-16T12:00:44.878Z,24.2
2018-07-16T12:01:50.106Z,24.2
2018-07-16T12:02:55.522Z,24.2
2018-07-16T12:04:01.426Z,24.2
2018-07-16T12:05:06.841Z,24.2
2018-07-16T12:06:12.181Z,24.2
2018-07-16T12:07:17.380Z,24.2
2018-07-16T12:08:22.255Z,24.2
2018-07-16T12:09:27.372Z,24.2
2018-07-16T12:10:32.263Z,24.2
2018-07-16T12:11:37.719Z,24.2
2018-07-16T12:12:43.878Z,24.1
2018-07-16T12:13:49.903Z,24.1
2018-07-16T12:14:55.365Z,24.2
2018-07-16T12:16:00.882Z,24.2
2018-07-16T12:17:05.911Z,24.1
2018-07-16T12:18:11.094Z,24.1
2018-07-16T12:19:16.223Z,24.1
2018-07-16T12:20:21.766Z,24.1
2018-07-16T12:21:28.582Z,24.1
2018-07-16T12:22:34.086Z,24.1
2018-07-16T12:23:39.522Z,24.1
2018-07-16T12:24:45.044Z,24.1
2018-07-16T12:25:50.739Z,24.1
2018-07-16T12:26:56.426Z,24.1
2018-07-16T12:28:01.826Z,24.1
2018-07-16T12:29:06.150Z,24.1
2018-07-16T12:30:11.611Z,24.1
2018-07-16T12:31:17.207Z,24.1
2018-07-16T12:32:22.668Z,24
2018-07-16T12:33:27.996Z,24
2018-07-16T12:34:33.472Z,24.1
2018-07-16T12:35:38.918Z,24.1
2018-07-16T12:36:44.627Z,24
2018-07-16T12:37:49.789Z,24
2018-07-16T12:38:54.994Z,24
2018-07-16T12:40:00.702Z,24
2018-07-16T12:41:04.734Z,24
2018-07-16T12:42:09.682Z,24
2018-07-16T12:43:14.918Z,24
2018-07-16T12:44:20.350Z,24
2018-07-16T12:45:25.873Z,24
2018-07-16T12:46:31.137Z,24
2018-07-16T12:47:36.023Z,24
2018-07-16T12:48:41.177Z,24
2018-07-16T12:49:46.364Z,24
2018-07-16T12:50:51.531Z,23.9
2018-07-16T12:51:57.369Z,24
2018-07-16T12:53:02.875Z,23.9
2018-07-16T12:54:07.801Z,23.9
2018-07-16T12:55:13.406Z,23.9
2018-07-16T12:56:18.565Z,23.9
2018-07-16T12:57:23.729Z,23.9
2018-07-16T12:58:30.490Z,23.9
2018-07-16T12:59:36.146Z,23.9
2018-07-16T13:00:41.878Z,23.9
2018-07-16T13:01:47.339Z,23.9
2018-07-16T13:02:52.562Z,23.9
2018-07-16T13:03:58.251Z,23.9
2018-07-16T13:05:03.408Z,23.9
2018-07-16T13:06:08.410Z,23.9
2018-07-16T13:07:14.578Z,23.9
2018-07-16T13:08:20.020Z,23.9
2018-07-16T13:10:45.251Z,23.9
2018-07-16T13:11:50.416Z,23.9
2018-07-16T13:12:55.833Z,23.9
2018-07-16T13:14:01.311Z,23.9
2018-07-16T13:15:05.890Z,23.9
2018-07-16T13:16:11.610Z,23.9
2018-07-16T13:17:16.730Z,23.9
2018-07-16T13:18:21.888Z,23.9
2018-07-16T13:19:27.384Z,23.9
2018-07-16T13:20:32.750Z,23.9
2018-07-16T13:21:37.616Z,23.9
2018-07-16T13:22:42.254Z,23.9
2018-07-16T13:23:46.875Z,23.9
2018-07-16T13:24:52.435Z,23.9
2018-07-16T13:25:58.444Z,23.9
2018-07-16T13:27:03.879Z,23.9
2018-07-16T13:28:09.735Z,23.9
2018-07-16T13:29:14.956Z,23.9
2018-07-16T13:30:20.157Z,23.9
2018-07-16T13:31:26.033Z,23.9
2018-07-16T13:32:30.957Z,24
2018-07-16T13:33:36.652Z,24
2018-07-16T13:34:42.096Z,24
2018-07-16T13:35:46.795Z,24
2018-07-16T13:36:52.340Z,24
2018-07-16T13:37:57.522Z,24
2018-07-16T13:39:02.396Z,24
2018-07-16T13:40:07.245Z,24
2018-07-16T13:41:12.695Z,24
2018-07-16T13:42:17.859Z,24
2018-07-16T13:43:23.670Z,24
2018-07-16T13:44:29.161Z,24
2018-07-16T13:45:34.958Z,24
2018-07-16T13:46:40.421Z,24
2018-07-16T13:47:45.626Z,24
2018-07-16T13:48:51.324Z,24
2018-07-16T13:49:56.311Z,24
2018-07-16T13:51:01.487Z,24
2018-07-16T13:52:06.342Z,24
2018-07-16T13:53:11.237Z,24
2018-07-16T13:54:16.506Z,24
2018-07-16T13:55:21.658Z,24
2018-07-16T13:56:26.944Z,24
2018-07-16T13:57:32.214Z,24
2018-07-16T13:58:37.385Z,24
2018-07-16T13:59:42.678Z,24
2018-07-16T14:00:49.392Z,24
2018-07-16T14:01:54.688Z,24
2018-07-16T14:03:00.569Z,24
2018-07-16T14:04:05.612Z,24
2018-07-16T14:05:10.484Z,24
2018-07-16T14:06:15.397Z,24
2018-07-16T14:07:20.708Z,24
2018-07-16T14:08:26.167Z,24
2018-07-16T14:09:31.598Z,24.1
2018-07-16T14:10:37.073Z,24.1
2018-07-16T14:11:42.332Z,24.1
2018-07-16T14:12:47.481Z,24.1
2018-07-16T14:13:52.630Z,24.1
2018-07-16T14:14:57.782Z,24.1
2018-07-16T14:16:03.206Z,24.1
2018-07-16T14:17:08.166Z,24.1
2018-07-16T14:18:13.620Z,24.1
2018-07-16T14:19:18.606Z,24.1
2018-07-16T14:20:23.513Z,24.1
2018-07-16T14:21:29.202Z,24.1
2018-07-16T14:22:34.671Z,24.1
2018-07-16T14:23:39.850Z,24.1
2018-07-16T14:24:45.514Z,24.1
2018-07-16T14:25:50.992Z,24.1
2018-07-16T14:26:56.237Z,24.1
2018-07-16T14:28:01.684Z,24.1
2018-07-16T14:29:06.633Z,24.1
2018-07-16T14:30:11.861Z,24.1
2018-07-16T14:31:17.361Z,24.2
2018-07-16T14:32:23.096Z,24.2
2018-07-16T14:33:28.184Z,24.2
2018-07-16T14:34:33.629Z,24.2
2018-07-16T14:35:38.807Z,24.2
2018-07-16T14:36:44.259Z,24.2
2018-07-16T14:37:49.138Z,24.2
2018-07-16T14:38:54.708Z,24.2
2018-07-16T14:40:00.776Z,24.2
2018-07-16T14:41:05.803Z,24.2
2018-07-16T14:42:10.767Z,24.2
2018-07-16T14:43:16.241Z,24.2
2018-07-16T14:44:21.405Z,24.2